sensor_id;sensor_type;location;lat;lon;timestamp;temperature;humidity
68943;DHT22;60852;52.190;4.422;2023-05-10T00:01:55;13.10;85.32
68943;DHT22;60852;52.190;4.422;2023-05-10T00:04:20;13.07;85.54
68943;DHT22;60852;52.190;4.422;2023-05-10T00:06:46;13.10;85.56
68943;DHT22;60852;52.190;4.422;2023-05-10T00:09:12;13.11;85.55
68943;DHT22;60852;52.190;4.422;2023-05-10T00:11:37;13.12;85.45
68943;DHT22;60852;52.190;4.422;2023-05-10T00:14:03;13.08;85.17
68943;DHT22;60852;52.190;4.422;2023-05-10T00:16:28;13.06;85.16
68943;DHT22;60852;52.190;4.422;2023-05-10T00:18:54;13.00;85.20
68943;DHT22;60852;52.190;4.422;2023-05-10T00:21:19;12.96;85.21
68943;DHT22;60852;52.190;4.422;2023-05-10T00:23:45;12.94;85.15
68943;DHT22;60852;52.190;4.422;2023-05-10T00:26:10;12.91;85.36
68943;DHT22;60852;52.190;4.422;2023-05-10T00:28:36;12.91;85.56
68943;DHT22;60852;52.190;4.422;2023-05-10T00:31:02;12.94;85.41
68943;DHT22;60852;52.190;4.422;2023-05-10T00:33:27;12.93;85.34
68943;DHT22;60852;52.190;4.422;2023-05-10T00:35:53;12.87;85.07
68943;DHT22;60852;52.190;4.422;2023-05-10T00:38:18;12.88;85.32
68943;DHT22;60852;52.190;4.422;2023-05-10T00:40:44;12.90;85.17
68943;DHT22;60852;52.190;4.422;2023-05-10T00:43:09;12.91;85.27
68943;DHT22;60852;52.190;4.422;2023-05-10T00:45:36;12.91;85.21
68943;DHT22;60852;52.190;4.422;2023-05-10T00:48:02;12.90;85.27
68943;DHT22;60852;52.190;4.422;2023-05-10T00:50:30;12.88;84.76
68943;DHT22;60852;52.190;4.422;2023-05-10T00:52:57;12.87;84.80
68943;DHT22;60852;52.190;4.422;2023-05-10T00:55:24;12.84;84.63
68943;DHT22;60852;52.190;4.422;2023-05-10T00:57:50;12.81;84.75
68943;DHT22;60852;52.190;4.422;2023-05-10T01:00:15;12.86;85.14
68943;DHT22;60852;52.190;4.422;2023-05-10T01:02:45;12.84;85.05
68943;DHT22;60852;52.190;4.422;2023-05-10T01:05:11;12.91;84.91
68943;DHT22;60852;52.190;4.422;2023-05-10T01:07:37;12.91;84.81
68943;DHT22;60852;52.190;4.422;2023-05-10T01:10:04;12.96;84.85
68943;DHT22;60852;52.190;4.422;2023-05-10T01:12:30;13.00;84.95
68943;DHT22;60852;52.190;4.422;2023-05-10T01:14:55;13.04;84.74
68943;DHT22;60852;52.190;4.422;2023-05-10T01:17:25;13.10;84.79
68943;DHT22;60852;52.190;4.422;2023-05-10T01:19:51;13.15;84.78
68943;DHT22;60852;52.190;4.422;2023-05-10T01:28:58;13.11;84.45
68943;DHT22;60852;52.190;4.422;2023-05-10T01:34:30;13.15;84.96
68943;DHT22;60852;52.190;4.422;2023-05-10T01:37:07;13.21;85.12
68943;DHT22;60852;52.190;4.422;2023-05-10T01:39:47;13.31;85.08
68943;DHT22;60852;52.190;4.422;2023-05-10T01:42:18;13.32;84.68
68943;DHT22;60852;52.190;4.422;2023-05-10T01:45:11;13.34;84.98
68943;DHT22;60852;52.190;4.422;2023-05-10T01:48:09;13.45;84.96
68943;DHT22;60852;52.190;4.422;2023-05-10T01:50:39;13.47;84.61
68943;DHT22;60852;52.190;4.422;2023-05-10T01:53:10;13.38;84.55
68943;DHT22;60852;52.190;4.422;2023-05-10T01:55:45;13.38;84.87
68943;DHT22;60852;52.190;4.422;2023-05-10T01:58:32;13.47;84.97
68943;DHT22;60852;52.190;4.422;2023-05-10T02:01:02;13.56;84.89
68943;DHT22;60852;52.190;4.422;2023-05-10T02:03:31;13.56;84.86
68943;DHT22;60852;52.190;4.422;2023-05-10T02:05:57;13.65;84.94
68943;DHT22;60852;52.190;4.422;2023-05-10T02:08:24;13.70;84.82
68943;DHT22;60852;52.190;4.422;2023-05-10T02:10:54;13.76;84.68
68943;DHT22;60852;52.190;4.422;2023-05-10T02:13:23;13.80;84.55
68943;DHT22;60852;52.190;4.422;2023-05-10T02:15:51;13.80;84.53
68943;DHT22;60852;52.190;4.422;2023-05-10T02:18:18;13.82;84.65
68943;DHT22;60852;52.190;4.422;2023-05-10T02:20:45;13.86;84.51
68943;DHT22;60852;52.190;4.422;2023-05-10T02:23:13;13.90;84.73
68943;DHT22;60852;52.190;4.422;2023-05-10T02:25:40;13.95;84.65
68943;DHT22;60852;52.190;4.422;2023-05-10T02:28:07;13.97;84.62
68943;DHT22;60852;52.190;4.422;2023-05-10T02:30:34;14.02;84.46
68943;DHT22;60852;52.190;4.422;2023-05-10T02:33:03;14.07;84.48
68943;DHT22;60852;52.190;4.422;2023-05-10T02:35:30;14.07;84.43
68943;DHT22;60852;52.190;4.422;2023-05-10T02:37:59;14.13;84.30
68943;DHT22;60852;52.190;4.422;2023-05-10T02:40:26;14.07;84.03
68943;DHT22;60852;52.190;4.422;2023-05-10T02:42:54;14.06;84.02
68943;DHT22;60852;52.190;4.422;2023-05-10T02:45:27;14.07;84.18
68943;DHT22;60852;52.190;4.422;2023-05-10T02:47:54;14.07;84.10
68943;DHT22;60852;52.190;4.422;2023-05-10T02:50:22;14.13;84.16
68943;DHT22;60852;52.190;4.422;2023-05-10T02:52:51;14.14;84.01
68943;DHT22;60852;52.190;4.422;2023-05-10T02:55:22;14.12;83.93
68943;DHT22;60852;52.190;4.422;2023-05-10T02:57:56;14.13;83.92
68943;DHT22;60852;52.190;4.422;2023-05-10T03:00:24;14.12;83.97
68943;DHT22;60852;52.190;4.422;2023-05-10T03:02:50;14.12;83.86
68943;DHT22;60852;52.190;4.422;2023-05-10T03:05:15;14.10;83.85
68943;DHT22;60852;52.190;4.422;2023-05-10T03:07:41;14.05;83.88
68943;DHT22;60852;52.190;4.422;2023-05-10T03:10:07;14.06;83.91
68943;DHT22;60852;52.190;4.422;2023-05-10T03:18:22;13.99;84.00
68943;DHT22;60852;52.190;4.422;2023-05-10T03:20:50;13.93;84.03
68943;DHT22;60852;52.190;4.422;2023-05-10T03:25:52;13.87;84.40
68943;DHT22;60852;52.190;4.422;2023-05-10T03:28:18;13.83;84.52
68943;DHT22;60852;52.190;4.422;2023-05-10T03:30:46;13.80;84.30
68943;DHT22;60852;52.190;4.422;2023-05-10T03:33:11;13.63;84.29
68943;DHT22;60852;52.190;4.422;2023-05-10T03:35:38;13.55;84.54
68943;DHT22;60852;52.190;4.422;2023-05-10T03:38:04;13.55;84.91
68943;DHT22;60852;52.190;4.422;2023-05-10T03:40:29;13.63;84.94
68943;DHT22;60852;52.190;4.422;2023-05-10T03:42:59;13.66;84.85
68943;DHT22;60852;52.190;4.422;2023-05-10T03:45:25;13.72;84.65
68943;DHT22;60852;52.190;4.422;2023-05-10T03:47:51;13.76;84.52
68943;DHT22;60852;52.190;4.422;2023-05-10T03:50:16;13.80;84.51
68943;DHT22;60852;52.190;4.422;2023-05-10T03:52:42;13.85;84.35
68943;DHT22;60852;52.190;4.422;2023-05-10T03:55:07;13.87;84.10
68943;DHT22;60852;52.190;4.422;2023-05-10T03:57:33;13.87;83.84
68943;DHT22;60852;52.190;4.422;2023-05-10T03:59:59;13.83;83.39
68943;DHT22;60852;52.190;4.422;2023-05-10T04:02:25;13.79;83.64
68943;DHT22;60852;52.190;4.422;2023-05-10T04:04:50;13.80;83.64
68943;DHT22;60852;52.190;4.422;2023-05-10T04:07:16;13.83;83.39
68943;DHT22;60852;52.190;4.422;2023-05-10T04:09:42;13.79;83.39
68943;DHT22;60852;52.190;4.422;2023-05-10T04:12:07;13.77;83.53
68943;DHT22;60852;52.190;4.422;2023-05-10T04:14:33;13.82;83.49
68943;DHT22;60852;52.190;4.422;2023-05-10T04:16:58;13.82;83.35
68943;DHT22;60852;52.190;4.422;2023-05-10T04:19:24;13.83;83.33
68943;DHT22;60852;52.190;4.422;2023-05-10T04:21:49;13.85;83.36
68943;DHT22;60852;52.190;4.422;2023-05-10T04:24:14;13.86;83.37
68943;DHT22;60852;52.190;4.422;2023-05-10T04:26:40;13.87;83.27
68943;DHT22;60852;52.190;4.422;2023-05-10T04:29:06;13.89;83.29
68943;DHT22;60852;52.190;4.422;2023-05-10T04:31:31;13.89;83.24
68943;DHT22;60852;52.190;4.422;2023-05-10T04:33:57;13.90;83.17
68943;DHT22;60852;52.190;4.422;2023-05-10T04:36:23;13.91;83.12
68943;DHT22;60852;52.190;4.422;2023-05-10T04:38:48;13.96;83.04
68943;DHT22;60852;52.190;4.422;2023-05-10T04:41:14;13.96;83.03
68943;DHT22;60852;52.190;4.422;2023-05-10T04:43:39;13.96;83.11
68943;DHT22;60852;52.190;4.422;2023-05-10T04:46:06;13.99;82.87
68943;DHT22;60852;52.190;4.422;2023-05-10T04:48:34;13.95;82.83
68943;DHT22;60852;52.190;4.422;2023-05-10T04:51:00;13.93;82.96
68943;DHT22;60852;52.190;4.422;2023-05-10T04:53:25;13.91;82.97
68943;DHT22;60852;52.190;4.422;2023-05-10T04:55:51;13.90;83.13
68943;DHT22;60852;52.190;4.422;2023-05-10T04:58:16;13.90;82.94
68943;DHT22;60852;52.190;4.422;2023-05-10T05:00:42;13.87;83.20
68943;DHT22;60852;52.190;4.422;2023-05-10T05:03:07;13.89;83.16
68943;DHT22;60852;52.190;4.422;2023-05-10T05:05:33;13.91;83.23
68943;DHT22;60852;52.190;4.422;2023-05-10T05:07:58;13.87;83.32
68943;DHT22;60852;52.190;4.422;2023-05-10T05:10:24;13.91;83.57
68943;DHT22;60852;52.190;4.422;2023-05-10T05:12:49;13.89;83.54
68943;DHT22;60852;52.190;4.422;2023-05-10T05:15:15;13.89;83.55
68943;DHT22;60852;52.190;4.422;2023-05-10T05:17:42;13.89;83.40
68943;DHT22;60852;52.190;4.422;2023-05-10T05:20:08;13.87;83.70
68943;DHT22;60852;52.190;4.422;2023-05-10T05:22:33;13.89;83.69
68943;DHT22;60852;52.190;4.422;2023-05-10T05:24:59;13.95;83.68
68943;DHT22;60852;52.190;4.422;2023-05-10T05:27:24;13.93;83.59
68943;DHT22;60852;52.190;4.422;2023-05-10T05:29:55;13.93;83.72
68943;DHT22;60852;52.190;4.422;2023-05-10T05:32:21;13.96;83.67
68943;DHT22;60852;52.190;4.422;2023-05-10T05:34:47;13.93;83.63
68943;DHT22;60852;52.190;4.422;2023-05-10T05:37:16;13.95;83.92
68943;DHT22;60852;52.190;4.422;2023-05-10T05:39:42;14.00;83.94
68943;DHT22;60852;52.190;4.422;2023-05-10T05:42:09;14.10;83.75
68943;DHT22;60852;52.190;4.422;2023-05-10T05:44:34;14.12;83.65
68943;DHT22;60852;52.190;4.422;2023-05-10T05:47:00;14.10;83.53
68943;DHT22;60852;52.190;4.422;2023-05-10T05:49:26;14.07;83.56
68943;DHT22;60852;52.190;4.422;2023-05-10T05:51:51;14.10;83.61
68943;DHT22;60852;52.190;4.422;2023-05-10T05:54:17;14.14;83.62
68943;DHT22;60852;52.190;4.422;2023-05-10T05:56:42;14.20;83.67
68943;DHT22;60852;52.190;4.422;2023-05-10T05:59:10;14.23;83.37
68943;DHT22;60852;52.190;4.422;2023-05-10T06:01:35;14.20;83.64
68943;DHT22;60852;52.190;4.422;2023-05-10T06:04:01;14.26;83.72
68943;DHT22;60852;52.190;4.422;2023-05-10T06:06:26;14.34;83.61
68943;DHT22;60852;52.190;4.422;2023-05-10T06:08:52;14.41;83.56
68943;DHT22;60852;52.190;4.422;2023-05-10T06:11:18;14.47;83.48
68943;DHT22;60852;52.190;4.422;2023-05-10T06:13:43;14.51;82.95
68943;DHT22;60852;52.190;4.422;2023-05-10T06:16:09;14.48;83.05
68943;DHT22;60852;52.190;4.422;2023-05-10T06:18:35;14.54;83.33
68943;DHT22;60852;52.190;4.422;2023-05-10T06:21:01;14.60;83.18
68943;DHT22;60852;52.190;4.422;2023-05-10T06:23:26;14.65;83.11
68943;DHT22;60852;52.190;4.422;2023-05-10T06:25:52;14.67;83.03
68943;DHT22;60852;52.190;4.422;2023-05-10T06:28:18;14.74;83.15
68943;DHT22;60852;52.190;4.422;2023-05-10T06:30:43;14.79;83.04
68943;DHT22;60852;52.190;4.422;2023-05-10T06:33:09;14.78;82.97
68943;DHT22;60852;52.190;4.422;2023-05-10T06:35:35;14.85;83.16
68943;DHT22;60852;52.190;4.422;2023-05-10T06:38:01;14.86;82.73
68943;DHT22;60852;52.190;4.422;2023-05-10T06:40:27;14.93;82.69
68943;DHT22;60852;52.190;4.422;2023-05-10T06:42:52;15.12;82.73
68943;DHT22;60852;52.190;4.422;2023-05-10T06:45:18;15.27;82.59
68943;DHT22;60852;52.190;4.422;2023-05-10T06:47:43;15.46;82.35
68943;DHT22;60852;52.190;4.422;2023-05-10T06:50:10;15.42;81.66
68943;DHT22;60852;52.190;4.422;2023-05-10T06:52:36;15.37;81.32
68943;DHT22;60852;52.190;4.422;2023-05-10T06:55:04;15.33;81.51
68943;DHT22;60852;52.190;4.422;2023-05-10T06:57:29;15.42;81.49
68943;DHT22;60852;52.190;4.422;2023-05-10T06:59:55;15.47;81.29
68943;DHT22;60852;52.190;4.422;2023-05-10T07:02:22;15.47;81.21
68943;DHT22;60852;52.190;4.422;2023-05-10T07:04:48;15.49;81.39
68943;DHT22;60852;52.190;4.422;2023-05-10T07:07:14;15.61;81.37
68943;DHT22;60852;52.190;4.422;2023-05-10T07:09:40;15.88;81.02
68943;DHT22;60852;52.190;4.422;2023-05-10T07:12:05;16.01;80.22
68943;DHT22;60852;52.190;4.422;2023-05-10T07:14:31;16.02;79.89
68943;DHT22;60852;52.190;4.422;2023-05-10T07:16:57;16.06;80.16
68943;DHT22;60852;52.190;4.422;2023-05-10T07:19:22;16.23;80.12
68943;DHT22;60852;52.190;4.422;2023-05-10T07:21:48;16.16;79.42
68943;DHT22;60852;52.190;4.422;2023-05-10T07:24:13;16.09;79.30
68943;DHT22;60852;52.190;4.422;2023-05-10T07:26:39;15.90;79.27
68943;DHT22;60852;52.190;4.422;2023-05-10T07:29:04;15.78;79.59
68943;DHT22;60852;52.190;4.422;2023-05-10T07:31:30;15.58;79.93
68943;DHT22;60852;52.190;4.422;2023-05-10T07:33:55;15.43;80.05
68943;DHT22;60852;52.190;4.422;2023-05-10T07:36:20;15.34;80.49
68943;DHT22;60852;52.190;4.422;2023-05-10T07:38:46;15.33;81.01
68943;DHT22;60852;52.190;4.422;2023-05-10T07:41:12;15.47;81.38
68943;DHT22;60852;52.190;4.422;2023-05-10T07:43:37;15.68;80.94
68943;DHT22;60852;52.190;4.422;2023-05-10T07:46:03;15.75;80.47
68943;DHT22;60852;52.190;4.422;2023-05-10T07:48:29;15.80;80.56
68943;DHT22;60852;52.190;4.422;2023-05-10T07:50:54;15.97;80.45
68943;DHT22;60852;52.190;4.422;2023-05-10T07:53:20;16.06;79.84
68943;DHT22;60852;52.190;4.422;2023-05-10T07:55:55;16.11;79.05
68943;DHT22;60852;52.190;4.422;2023-05-10T07:58:22;16.15;78.88
68943;DHT22;60852;52.190;4.422;2023-05-10T08:00:47;16.16;78.55
68943;DHT22;60852;52.190;4.422;2023-05-10T08:03:14;16.05;78.43
68943;DHT22;60852;52.190;4.422;2023-05-10T08:05:40;16.04;78.24
68943;DHT22;60852;52.190;4.422;2023-05-10T08:08:05;16.05;78.41
68943;DHT22;60852;52.190;4.422;2023-05-10T08:10:31;16.04;78.57
68943;DHT22;60852;52.190;4.422;2023-05-10T08:12:57;15.94;78.31
68943;DHT22;60852;52.190;4.422;2023-05-10T08:15:24;15.95;78.85
68943;DHT22;60852;52.190;4.422;2023-05-10T08:17:51;16.02;78.97
68943;DHT22;60852;52.190;4.422;2023-05-10T08:20:16;15.94;78.62
68943;DHT22;60852;52.190;4.422;2023-05-10T08:22:45;15.85;78.78
68943;DHT22;60852;52.190;4.422;2023-05-10T08:25:10;15.70;78.88
68943;DHT22;60852;52.190;4.422;2023-05-10T08:27:36;15.64;79.51
68943;DHT22;60852;52.190;4.422;2023-05-10T08:30:02;15.65;79.55
68943;DHT22;60852;52.190;4.422;2023-05-10T08:32:27;15.67;79.78
68943;DHT22;60852;52.190;4.422;2023-05-10T08:34:52;15.73;79.45
68943;DHT22;60852;52.190;4.422;2023-05-10T08:37:18;15.75;78.84
68943;DHT22;60852;52.190;4.422;2023-05-10T08:39:43;15.75;79.17
68943;DHT22;60852;52.190;4.422;2023-05-10T08:42:12;15.87;79.33
68943;DHT22;60852;52.190;4.422;2023-05-10T08:44:42;15.88;79.10
68943;DHT22;60852;52.190;4.422;2023-05-10T08:47:09;15.95;78.90
68943;DHT22;60852;52.190;4.422;2023-05-10T08:49:37;16.09;78.86
68943;DHT22;60852;52.190;4.422;2023-05-10T08:52:04;16.28;78.37
68943;DHT22;60852;52.190;4.422;2023-05-10T08:54:32;16.33;78.28
68943;DHT22;60852;52.190;4.422;2023-05-10T08:56:58;16.29;78.04
68943;DHT22;60852;52.190;4.422;2023-05-10T08:59:24;16.21;77.83
68943;DHT22;60852;52.190;4.422;2023-05-10T09:01:50;16.18;77.89
68943;DHT22;60852;52.190;4.422;2023-05-10T09:04:19;16.06;78.03
68943;DHT22;60852;52.190;4.422;2023-05-10T09:06:45;16.00;78.16
68943;DHT22;60852;52.190;4.422;2023-05-10T09:09:11;15.91;78.73
68943;DHT22;60852;52.190;4.422;2023-05-10T09:11:37;15.88;78.85
68943;DHT22;60852;52.190;4.422;2023-05-10T09:14:03;15.81;78.99
68943;DHT22;60852;52.190;4.422;2023-05-10T09:16:28;15.85;78.98
68943;DHT22;60852;52.190;4.422;2023-05-10T09:18:54;15.97;79.04
68943;DHT22;60852;52.190;4.422;2023-05-10T09:21:19;16.00;78.33
68943;DHT22;60852;52.190;4.422;2023-05-10T09:23:46;16.04;78.17
68943;DHT22;60852;52.190;4.422;2023-05-10T09:26:12;16.05;77.98
68943;DHT22;60852;52.190;4.422;2023-05-10T09:28:57;16.04;78.29
68943;DHT22;60852;52.190;4.422;2023-05-10T09:31:24;16.14;77.76
68943;DHT22;60852;52.190;4.422;2023-05-10T09:34:08;16.30;77.46
68943;DHT22;60852;52.190;4.422;2023-05-10T09:36:34;16.45;77.38
68943;DHT22;60852;52.190;4.422;2023-05-10T09:39:00;16.55;76.95
68943;DHT22;60852;52.190;4.422;2023-05-10T09:41:25;16.51;76.76
68943;DHT22;60852;52.190;4.422;2023-05-10T09:43:55;16.51;77.20
68943;DHT22;60852;52.190;4.422;2023-05-10T09:46:21;16.43;76.63
68943;DHT22;60852;52.190;4.422;2023-05-10T09:48:48;16.36;77.19
68943;DHT22;60852;52.190;4.422;2023-05-10T09:51:24;16.30;77.51
68943;DHT22;60852;52.190;4.422;2023-05-10T09:54:11;16.30;77.31
68943;DHT22;60852;52.190;4.422;2023-05-10T09:56:38;16.22;77.81
68943;DHT22;60852;52.190;4.422;2023-05-10T09:59:07;16.16;77.46
68943;DHT22;60852;52.190;4.422;2023-05-10T10:01:34;16.12;77.74
68943;DHT22;60852;52.190;4.422;2023-05-10T10:04:03;16.02;77.80
68943;DHT22;60852;52.190;4.422;2023-05-10T10:06:35;15.98;78.16
68943;DHT22;60852;52.190;4.422;2023-05-10T10:09:00;15.94;78.28
68943;DHT22;60852;52.190;4.422;2023-05-10T10:11:26;15.94;78.39
68943;DHT22;60852;52.190;4.422;2023-05-10T10:13:53;15.91;78.40
68943;DHT22;60852;52.190;4.422;2023-05-10T10:16:19;15.83;78.59
68943;DHT22;60852;52.190;4.422;2023-05-10T10:18:45;15.84;78.79
68943;DHT22;60852;52.190;4.422;2023-05-10T10:21:13;15.74;78.41
68943;DHT22;60852;52.190;4.422;2023-05-10T10:23:40;15.70;79.13
68943;DHT22;60852;52.190;4.422;2023-05-10T10:26:06;15.70;79.44
68943;DHT22;60852;52.190;4.422;2023-05-10T10:28:55;15.73;79.47
68943;DHT22;60852;52.190;4.422;2023-05-10T10:31:32;15.75;79.32
68943;DHT22;60852;52.190;4.422;2023-05-10T10:34:05;15.68;79.34
68943;DHT22;60852;52.190;4.422;2023-05-10T10:36:33;15.60;79.38
68943;DHT22;60852;52.190;4.422;2023-05-10T10:39:00;15.53;79.87
68943;DHT22;60852;52.190;4.422;2023-05-10T10:41:35;15.54;79.69
68943;DHT22;60852;52.190;4.422;2023-05-10T10:49:32;15.60;80.31
68943;DHT22;60852;52.190;4.422;2023-05-10T10:54:52;15.57;80.29
68943;DHT22;60852;52.190;4.422;2023-05-10T10:57:19;15.64;80.10
68943;DHT22;60852;52.190;4.422;2023-05-10T10:59:48;15.54;80.28
68943;DHT22;60852;52.190;4.422;2023-05-10T11:03:06;15.51;81.16
68943;DHT22;60852;52.190;4.422;2023-05-10T11:07:57;15.58;80.79
68943;DHT22;60852;52.190;4.422;2023-05-10T11:10:24;15.46;80.79
68943;DHT22;60852;52.190;4.422;2023-05-10T11:12:52;15.55;81.65
68943;DHT22;60852;52.190;4.422;2023-05-10T11:15:19;15.71;81.02
68943;DHT22;60852;52.190;4.422;2023-05-10T11:17:45;15.64;80.29
68943;DHT22;60852;52.190;4.422;2023-05-10T11:20:14;15.58;80.71
68943;DHT22;60852;52.190;4.422;2023-05-10T11:22:53;15.68;81.37
68943;DHT22;60852;52.190;4.422;2023-05-10T11:25:19;15.65;80.96
68943;DHT22;60852;52.190;4.422;2023-05-10T11:27:47;15.74;81.09
68943;DHT22;60852;52.190;4.422;2023-05-10T11:30:14;15.71;80.24
68943;DHT22;60852;52.190;4.422;2023-05-10T11:32:40;15.73;81.01
68943;DHT22;60852;52.190;4.422;2023-05-10T11:35:07;15.84;80.15
68943;DHT22;60852;52.190;4.422;2023-05-10T11:37:33;15.81;80.38
68943;DHT22;60852;52.190;4.422;2023-05-10T11:39:59;15.87;80.23
68943;DHT22;60852;52.190;4.422;2023-05-10T11:42:25;15.83;79.84
68943;DHT22;60852;52.190;4.422;2023-05-10T11:44:50;15.83;80.34
68943;DHT22;60852;52.190;4.422;2023-05-10T11:47:16;15.85;80.27
68943;DHT22;60852;52.190;4.422;2023-05-10T11:49:45;15.80;80.32
68943;DHT22;60852;52.190;4.422;2023-05-10T11:52:11;15.84;80.57
68943;DHT22;60852;52.190;4.422;2023-05-10T11:54:37;15.91;80.77
68943;DHT22;60852;52.190;4.422;2023-05-10T11:57:03;15.78;80.56
68943;DHT22;60852;52.190;4.422;2023-05-10T11:59:29;15.77;80.33
68943;DHT22;60852;52.190;4.422;2023-05-10T12:01:55;15.81;80.75
68943;DHT22;60852;52.190;4.422;2023-05-10T12:04:21;15.77;80.63
68943;DHT22;60852;52.190;4.422;2023-05-10T12:06:47;15.75;80.66
68943;DHT22;60852;52.190;4.422;2023-05-10T12:09:14;15.65;80.61
68943;DHT22;60852;52.190;4.422;2023-05-10T12:11:40;15.60;80.63
68943;DHT22;60852;52.190;4.422;2023-05-10T12:14:06;15.57;80.73
68943;DHT22;60852;52.190;4.422;2023-05-10T12:16:31;15.43;80.83
68943;DHT22;60852;52.190;4.422;2023-05-10T12:18:59;15.47;81.31
68943;DHT22;60852;52.190;4.422;2023-05-10T12:21:27;15.53;81.46
68943;DHT22;60852;52.190;4.422;2023-05-10T12:23:56;15.50;80.50
68943;DHT22;60852;52.190;4.422;2023-05-10T12:26:24;15.47;81.35
68943;DHT22;60852;52.190;4.422;2023-05-10T12:28:53;15.50;81.32
68943;DHT22;60852;52.190;4.422;2023-05-10T12:31:19;15.54;81.10
68943;DHT22;60852;52.190;4.422;2023-05-10T12:33:45;15.64;81.10
68943;DHT22;60852;52.190;4.422;2023-05-10T12:36:13;15.63;81.01
68943;DHT22;60852;52.190;4.422;2023-05-10T12:38:44;15.67;81.15
68943;DHT22;60852;52.190;4.422;2023-05-10T12:41:15;15.68;80.79
68943;DHT22;60852;52.190;4.422;2023-05-10T12:43:41;15.80;81.00
68943;DHT22;60852;52.190;4.422;2023-05-10T12:46:16;15.85;80.54
68943;DHT22;60852;52.190;4.422;2023-05-10T12:48:43;15.93;80.55
68943;DHT22;60852;52.190;4.422;2023-05-10T12:51:09;15.90;80.03
68943;DHT22;60852;52.190;4.422;2023-05-10T12:53:37;15.97;80.34
68943;DHT22;60852;52.190;4.422;2023-05-10T12:56:03;16.06;79.87
68943;DHT22;60852;52.190;4.422;2023-05-10T12:58:29;16.06;78.90
68943;DHT22;60852;52.190;4.422;2023-05-10T13:00:54;16.02;79.06
68943;DHT22;60852;52.190;4.422;2023-05-10T13:03:22;15.94;79.31
68943;DHT22;60852;52.190;4.422;2023-05-10T13:05:47;15.87;78.95
68943;DHT22;60852;52.190;4.422;2023-05-10T13:08:13;15.78;79.25
68943;DHT22;60852;52.190;4.422;2023-05-10T13:10:38;15.77;79.53
68943;DHT22;60852;52.190;4.422;2023-05-10T13:13:04;15.85;79.64
68943;DHT22;60852;52.190;4.422;2023-05-10T13:15:30;15.87;79.60
68943;DHT22;60852;52.190;4.422;2023-05-10T13:17:56;16.01;79.65
68943;DHT22;60852;52.190;4.422;2023-05-10T13:20:21;16.09;78.49
68943;DHT22;60852;52.190;4.422;2023-05-10T13:22:47;16.09;78.49
68943;DHT22;60852;52.190;4.422;2023-05-10T13:25:13;16.05;78.18
68943;DHT22;60852;52.190;4.422;2023-05-10T13:27:41;16.08;78.73
68943;DHT22;60852;52.190;4.422;2023-05-10T13:30:08;16.14;78.65
68943;DHT22;60852;52.190;4.422;2023-05-10T13:32:34;16.29;78.69
68943;DHT22;60852;52.190;4.422;2023-05-10T13:34:59;16.43;78.52
68943;DHT22;60852;52.190;4.422;2023-05-10T13:37:25;16.56;78.01
68943;DHT22;60852;52.190;4.422;2023-05-10T13:39:50;16.70;77.68
68943;DHT22;60852;52.190;4.422;2023-05-10T13:42:17;16.73;76.35
68943;DHT22;60852;52.190;4.422;2023-05-10T13:44:42;16.59;76.38
68943;DHT22;60852;52.190;4.422;2023-05-10T13:47:08;16.43;77.38
68943;DHT22;60852;52.190;4.422;2023-05-10T13:49:34;16.43;76.99
68943;DHT22;60852;52.190;4.422;2023-05-10T13:52:00;16.42;77.16
68943;DHT22;60852;52.190;4.422;2023-05-10T13:54:38;16.57;76.92
68943;DHT22;60852;52.190;4.422;2023-05-10T13:57:04;16.59;76.75
68943;DHT22;60852;52.190;4.422;2023-05-10T13:59:30;16.77;76.91
68943;DHT22;60852;52.190;4.422;2023-05-10T14:01:59;16.84;76.44
68943;DHT22;60852;52.190;4.422;2023-05-10T14:04:28;16.91;75.81
68943;DHT22;60852;52.190;4.422;2023-05-10T14:06:53;16.84;75.23
68943;DHT22;60852;52.190;4.422;2023-05-10T14:09:19;16.66;76.09
68943;DHT22;60852;52.190;4.422;2023-05-10T14:11:45;16.72;76.09
68943;DHT22;60852;52.190;4.422;2023-05-10T14:14:11;16.73;76.19
68943;DHT22;60852;52.190;4.422;2023-05-10T14:16:36;16.74;75.90
68943;DHT22;60852;52.190;4.422;2023-05-10T14:19:02;16.79;75.90
68943;DHT22;60852;52.190;4.422;2023-05-10T14:21:28;16.87;75.41
68943;DHT22;60852;52.190;4.422;2023-05-10T14:23:56;16.87;75.74
68943;DHT22;60852;52.190;4.422;2023-05-10T14:26:22;16.90;75.81
68943;DHT22;60852;52.190;4.422;2023-05-10T14:28:48;16.84;75.30
68943;DHT22;60852;52.190;4.422;2023-05-10T14:31:14;16.74;75.37
68943;DHT22;60852;52.190;4.422;2023-05-10T14:33:40;16.67;75.64
68943;DHT22;60852;52.190;4.422;2023-05-10T14:36:06;16.63;75.75
68943;DHT22;60852;52.190;4.422;2023-05-10T14:38:32;16.57;75.65
68943;DHT22;60852;52.190;4.422;2023-05-10T14:40:58;16.57;75.41
68943;DHT22;60852;52.190;4.422;2023-05-10T14:43:23;16.55;75.96
68943;DHT22;60852;52.190;4.422;2023-05-10T14:45:49;16.56;75.78
68943;DHT22;60852;52.190;4.422;2023-05-10T14:48:14;16.55;75.79
68943;DHT22;60852;52.190;4.422;2023-05-10T14:50:42;16.46;76.46
68943;DHT22;60852;52.190;4.422;2023-05-10T14:53:08;16.48;76.45
68943;DHT22;60852;52.190;4.422;2023-05-10T14:55:33;16.56;76.33
68943;DHT22;60852;52.190;4.422;2023-05-10T14:58:02;16.62;75.95
68943;DHT22;60852;52.190;4.422;2023-05-10T15:00:28;16.49;75.77
68943;DHT22;60852;52.190;4.422;2023-05-10T15:02:54;16.48;76.36
68943;DHT22;60852;52.190;4.422;2023-05-10T15:05:20;16.45;76.29
68943;DHT22;60852;52.190;4.422;2023-05-10T15:07:45;16.41;76.37
68943;DHT22;60852;52.190;4.422;2023-05-10T15:10:11;16.46;76.32
68943;DHT22;60852;52.190;4.422;2023-05-10T15:12:37;16.46;76.14
68943;DHT22;60852;52.190;4.422;2023-05-10T15:15:04;16.48;76.03
68943;DHT22;60852;52.190;4.422;2023-05-10T15:17:30;16.49;75.64
68943;DHT22;60852;52.190;4.422;2023-05-10T15:19:55;16.48;75.85
68943;DHT22;60852;52.190;4.422;2023-05-10T15:22:21;16.48;76.42
68943;DHT22;60852;52.190;4.422;2023-05-10T15:24:47;16.33;76.01
68943;DHT22;60852;52.190;4.422;2023-05-10T15:27:12;16.21;77.22
68943;DHT22;60852;52.190;4.422;2023-05-10T15:29:38;16.26;77.18
68943;DHT22;60852;52.190;4.422;2023-05-10T15:32:04;16.22;75.92
68943;DHT22;60852;52.190;4.422;2023-05-10T15:34:29;16.19;76.87
68943;DHT22;60852;52.190;4.422;2023-05-10T15:36:55;16.38;77.29
68943;DHT22;60852;52.190;4.422;2023-05-10T15:39:20;16.63;77.75
68943;DHT22;60852;52.190;4.422;2023-05-10T15:41:45;16.83;76.76
68943;DHT22;60852;52.190;4.422;2023-05-10T15:44:12;16.88;75.28
68943;DHT22;60852;52.190;4.422;2023-05-10T15:46:37;16.90;75.31
68943;DHT22;60852;52.190;4.422;2023-05-10T15:49:03;16.87;74.73
68943;DHT22;60852;52.190;4.422;2023-05-10T15:51:29;16.66;74.72
68943;DHT22;60852;52.190;4.422;2023-05-10T15:53:54;16.51;75.42
68943;DHT22;60852;52.190;4.422;2023-05-10T15:56:20;16.36;75.55
68943;DHT22;60852;52.190;4.422;2023-05-10T15:58:45;16.19;76.05